sensor_id;sensor_type;location;lat;lon;timestamp;pressure;altitude;pressure_sealevel;temperature;humidity
48624;BME280;34422;45.802;16.114;2023-05-23T00:01:20;65505.00;;;16.10;100.00
48624;BME280;34422;45.802;16.114;2023-05-23T00:03:48;65502.81;;;16.06;100.00
48624;BME280;34422;45.802;16.114;2023-05-23T00:06:18;65489.84;;;15.98;100.00
48624;BME280;34422;45.802;16.114;2023-05-23T00:08:46;65490.94;;;15.94;100.00
48624;BME280;34422;45.802;16.114;2023-05-23T00:11:14;65483.34;;;15.87;100.00
48624;BME280;34422;45.802;16.114;2023-05-23T00:13:41;65477.41;;;15.84;100.00
48624;BME280;34422;45.802;16.114;2023-05-23T00:16:08;65476.34;;;15.81;100.00
48624;BME280;34422;45.802;16.114;2023-05-23T00:18:36;65461.19;;;15.72;100.00
48624;BME280;34422;45.802;16.114;2023-05-23T00:21:03;65464.44;;;15.67;100.00
48624;BME280;34422;45.802;16.114;2023-05-23T00:23:30;65455.25;;;15.63;100.00
48624;BME280;34422;45.802;16.114;2023-05-23T00:25:59;65457.41;;;15.63;100.00
48624;BME280;34422;45.802;16.114;2023-05-23T00:28:26;65448.22;;;15.57;100.00
48624;BME280;34422;45.802;16.114;2023-05-23T00:30:53;65442.25;;;15.49;100.00
48624;BME280;34422;45.802;16.114;2023-05-23T00:33:20;65439.56;;;15.41;100.00
48624;BME280;34422;45.802;16.114;2023-05-23T00:35:47;65400.63;;;15.05;100.00
48624;BME280;34422;45.802;16.114;2023-05-23T00:38:15;65362.81;;;14.82;100.00
48624;BME280;34422;45.802;16.114;2023-05-23T00:40:42;65360.09;;;14.72;100.00
48624;BME280;34422;45.802;16.114;2023-05-23T00:43:09;65350.38;;;14.63;100.00
48624;BME280;34422;45.802;16.114;2023-05-23T00:45:36;65356.84;;;14.69;100.00
48624;BME280;34422;45.802;16.114;2023-05-23T00:48:03;65348.22;;;14.61;100.00
48624;BME280;34422;45.802;16.114;2023-05-23T00:50:30;65350.38;;;14.63;100.00
48624;BME280;34422;45.802;16.114;2023-05-23T00:52:59;65350.38;;;14.65;100.00
48624;BME280;34422;45.802;16.114;2023-05-23T00:55:27;65349.31;;;14.62;100.00
48624;BME280;34422;45.802;16.114;2023-05-23T00:57:54;65341.75;;;14.60;100.00
48624;BME280;34422;45.802;16.114;2023-05-23T01:00:23;65344.44;;;14.60;100.00
48624;BME280;34422;45.802;16.114;2023-05-23T01:02:50;65344.97;;;14.57;100.00
48624;BME280;34422;45.802;16.114;2023-05-23T01:05:18;65342.28;;;14.55;100.00
48624;BME280;34422;45.802;16.114;2023-05-23T01:07:46;65339.56;;;14.52;100.00
48624;BME280;34422;45.802;16.114;2023-05-23T01:10:18;65336.34;;;14.54;100.00
48624;BME280;34422;45.802;16.114;2023-05-23T01:15:27;65339.03;;;14.52;100.00
48624;BME280;34422;45.802;16.114;2023-05-23T01:20:34;65343.34;;;14.56;100.00
48624;BME280;34422;45.802;16.114;2023-05-23T01:23:23;65340.66;;;14.53;100.00
48624;BME280;34422;45.802;16.114;2023-05-23T01:26:15;65342.28;;;14.55;100.00
48624;BME280;34422;45.802;16.114;2023-05-23T01:28:50;65326.63;;;14.45;100.00
48624;BME280;34422;45.802;16.114;2023-05-23T01:31:18;65322.81;;;14.39;100.00
48624;BME280;34422;45.802;16.114;2023-05-23T01:33:45;65314.19;;;14.31;100.00
48624;BME280;34422;45.802;16.114;2023-05-23T01:36:15;65314.16;;;14.29;100.00
48624;BME280;34422;45.802;16.114;2023-05-23T01:38:42;65314.72;;;14.29;100.00
48624;BME280;34422;45.802;16.114;2023-05-23T01:41:09;65314.72;;;14.29;100.00
48624;BME280;34422;45.802;16.114;2023-05-23T01:43:36;65306.06;;;14.26;100.00
48624;BME280;34422;45.802;16.114;2023-05-23T01:46:04;65304.47;;;14.19;100.00
48624;BME280;34422;45.802;16.114;2023-05-23T01:48:32;65297.44;;;14.18;100.00
48624;BME280;34422;45.802;16.114;2023-05-23T01:51:00;65299.59;;;14.15;100.00
48624;BME280;34422;45.802;16.114;2023-05-23T01:53:27;65294.19;;;14.12;100.00
48624;BME280;34422;45.802;16.114;2023-05-23T01:55:56;65295.25;;;14.11;100.00
48624;BME280;34422;45.802;16.114;2023-05-23T01:58:22;65285.56;;;14.04;100.00
48624;BME280;34422;45.802;16.114;2023-05-23T02:00:49;65281.22;;;13.98;100.00
48624;BME280;34422;45.802;16.114;2023-05-23T02:03:16;65285.56;;;14.02;100.00
48624;BME280;34422;45.802;16.114;2023-05-23T02:05:43;65286.63;;;14.03;100.00
48624;BME280;34422;45.802;16.114;2023-05-23T02:08:10;65281.25;;;14.03;100.00
48624;BME280;34422;45.802;16.114;2023-05-23T02:10:37;65283.38;;;14.00;100.00
48624;BME280;34422;45.802;16.114;2023-05-23T02:13:04;65285.53;;;13.99;100.00
48624;BME280;34422;45.802;16.114;2023-05-23T02:15:30;65280.69;;;14.00;100.00
48624;BME280;34422;45.802;16.114;2023-05-23T02:17:57;65283.38;;;14.00;100.00
48624;BME280;34422;45.802;16.114;2023-05-23T02:20:24;65275.28;;;13.92;100.00
48624;BME280;34422;45.802;16.114;2023-05-23T02:22:51;65271.50;;;13.86;100.00
48624;BME280;34422;45.802;16.114;2023-05-23T02:25:18;65265.03;;;13.82;100.00
48624;BME280;34422;45.802;16.114;2023-05-23T02:27:45;65263.41;;;13.81;100.00
48624;BME280;34422;45.802;16.114;2023-05-23T02:30:12;65262.88;;;13.80;100.00
48624;BME280;34422;45.802;16.114;2023-05-23T02:32:39;65257.47;;;13.80;100.00
48624;BME280;34422;45.802;16.114;2023-05-23T02:35:06;65266.13;;;13.86;100.00
48624;BME280;34422;45.802;16.114;2023-05-23T02:37:32;65263.41;;;13.83;100.00
48624;BME280;34422;45.802;16.114;2023-05-23T02:39:59;65265.56;;;13.83;100.00
48624;BME280;34422;45.802;16.114;2023-05-23T02:42:26;65264.50;;;13.79;100.00
48624;BME280;34422;45.802;16.114;2023-05-23T02:44:53;65260.72;;;13.78;100.00
48624;BME280;34422;45.802;16.114;2023-05-23T02:47:20;65263.97;;;13.79;100.00
48624;BME280;34422;45.802;16.114;2023-05-23T02:49:47;65266.09;;;13.83;100.00
48624;BME280;34422;45.802;16.114;2023-05-23T02:52:13;65267.19;;;13.84;100.00
48624;BME280;34422;45.802;16.114;2023-05-23T02:54:41;65267.75;;;13.90;100.00
48624;BME280;34422;45.802;16.114;2023-05-23T02:57:08;65273.66;;;13.88;100.00
48624;BME280;34422;45.802;16.114;2023-05-23T02:59:34;65255.31;;;13.78;100.00
48624;BME280;34422;45.802;16.114;2023-05-23T03:02:01;65262.88;;;13.78;100.00
48624;BME280;34422;45.802;16.114;2023-05-23T03:04:28;65263.94;;;13.81;100.00
48624;BME280;34422;45.802;16.114;2023-05-23T03:06:55;65259.63;;;13.77;100.00
48624;BME280;34422;45.802;16.114;2023-05-23T03:09:22;65248.84;;;13.72;100.00
48624;BME280;34422;45.802;16.114;2023-05-23T03:11:48;65244.53;;;13.68;100.00
48624;BME280;34422;45.802;16.114;2023-05-23T03:14:15;65241.28;;;13.68;100.00
48624;BME280;34422;45.802;16.114;2023-05-23T03:16:42;65236.97;;;13.61;100.00
48624;BME280;34422;45.802;16.114;2023-05-23T03:19:09;65234.81;;;13.49;100.00
48624;BME280;34422;45.802;16.114;2023-05-23T03:21:36;65224.00;;;13.44;100.00
48624;BME280;34422;45.802;16.114;2023-05-23T03:24:03;65220.78;;;13.46;100.00
48624;BME280;34422;45.802;16.114;2023-05-23T03:26:30;65229.41;;;13.49;100.00
48624;BME280;34422;45.802;16.114;2023-05-23T03:28:57;65222.94;;;13.48;100.00
48624;BME280;34422;45.802;16.114;2023-05-23T03:31:23;65227.25;;;13.52;100.00
48624;BME280;34422;45.802;16.114;2023-05-23T03:33:50;65233.72;;;13.53;100.00
48624;BME280;34422;45.802;16.114;2023-05-23T03:36:19;65233.19;;;13.52;100.00
48624;BME280;34422;45.802;16.114;2023-05-23T03:38:47;65247.75;;;13.61;100.00
48624;BME280;34422;45.802;16.114;2023-05-23T03:41:14;65252.06;;;13.70;100.00
48624;BME280;34422;45.802;16.114;2023-05-23T03:43:40;65253.16;;;13.71;100.00
48624;BME280;34422;45.802;16.114;2023-05-23T03:46:07;65257.47;;;13.75;100.00
48624;BME280;34422;45.802;16.114;2023-05-23T03:48:34;65263.94;;;13.81;100.00
48624;BME280;34422;45.802;16.114;2023-05-23T03:51:01;65274.75;;;13.92;100.00
48624;BME280;34422;45.802;16.114;2023-05-23T03:53:28;65288.25;;;14.02;100.00
48624;BME280;34422;45.802;16.114;2023-05-23T03:55:55;65278.53;;;13.98;100.00
48624;BME280;34422;45.802;16.114;2023-05-23T03:58:22;65293.09;;;14.09;100.00
48624;BME280;34422;45.802;16.114;2023-05-23T04:00:48;65302.84;;;14.18;100.00
48624;BME280;34422;45.802;16.114;2023-05-23T04:03:15;65306.06;;;14.26;100.00
48624;BME280;34422;45.802;16.114;2023-05-23T04:05:42;65325.50;;;14.39;100.00
48624;BME280;34422;45.802;16.114;2023-05-23T04:08:09;65337.41;;;14.50;100.00
48624;BME280;34422;45.802;16.114;2023-05-23T04:10:36;65344.97;;;14.63;100.00
48624;BME280;34422;45.802;16.114;2023-05-23T04:13:03;65316.34;;;14.31;100.00
48624;BME280;34422;45.802;16.114;2023-05-23T04:15:30;65264.50;;;13.87;100.00
48624;BME280;34422;45.802;16.114;2023-05-23T04:17:59;65251.00;;;13.69;100.00
48624;BME280;34422;45.802;16.114;2023-05-23T04:20:26;65262.88;;;13.80;100.00
48624;BME280;34422;45.802;16.114;2023-05-23T04:22:53;65269.34;;;13.86;100.00
48624;BME280;34422;45.802;16.114;2023-05-23T04:25:20;65281.22;;;13.98;100.00
48624;BME280;34422;45.802;16.114;2023-05-23T04:27:47;65292.56;;;14.08;100.00
48624;BME280;34422;45.802;16.114;2023-05-23T04:30:14;65312.00;;;14.29;100.00
48624;BME280;34422;45.802;16.114;2023-05-23T04:32:43;65359.03;;;14.71;100.00
48624;BME280;34422;45.802;16.114;2023-05-23T04:35:10;65379.53;;;14.90;100.00
48624;BME280;34422;45.802;16.114;2023-05-23T04:37:37;65374.16;;;14.85;100.00
48624;BME280;34422;45.802;16.114;2023-05-23T04:40:05;65390.38;;;15.00;100.00
48624;BME280;34422;45.802;16.114;2023-05-23T04:42:33;65408.72;;;15.17;100.00
48624;BME280;34422;45.802;16.114;2023-05-23T04:44:59;65419.53;;;15.27;100.00
48624;BME280;34422;45.802;16.114;2023-05-23T04:47:27;65447.13;;;15.53;100.00
48624;BME280;34422;45.802;16.114;2023-05-23T04:49:54;65468.22;;;15.73;100.00
48624;BME280;34422;45.802;16.114;2023-05-23T04:52:22;65463.34;;;15.69;100.00
48624;BME280;34422;45.802;16.114;2023-05-23T04:54:49;65459.56;;;15.70;100.00
48624;BME280;34422;45.802;16.114;2023-05-23T04:57:16;65512.00;;;16.17;100.00
48624;BME280;34422;45.802;16.114;2023-05-23T04:59:43;65560.72;;;16.60;100.00
48624;BME280;34422;45.802;16.114;2023-05-23T05:02:09;65592.66;;;16.90;100.00
48624;BME280;34422;45.802;16.114;2023-05-23T05:04:36;65628.91;;;17.31;100.00
48624;BME280;34422;45.802;16.114;2023-05-23T05:07:03;65658.69;;;17.59;100.00
48624;BME280;34422;45.802;16.114;2023-05-23T05:09:30;65735.09;;;18.28;100.00
48624;BME280;34422;45.802;16.114;2023-05-23T05:11:57;65840.25;;;19.27;100.00
48624;BME280;34422;45.802;16.114;2023-05-23T05:14:27;65873.34;;;19.58;100.00
48624;BME280;34422;45.802;16.114;2023-05-23T05:16:54;65938.47;;;20.13;100.00
48624;BME280;34422;45.802;16.114;2023-05-23T05:19:23;65905.88;;;19.88;100.00
48624;BME280;34422;45.802;16.114;2023-05-23T05:21:50;65867.94;;;19.52;100.00
48624;BME280;34422;45.802;16.114;2023-05-23T05:24:17;65883.13;;;19.62;100.00
48624;BME280;34422;45.802;16.114;2023-05-23T05:26:47;65944.41;;;20.24;100.00
48624;BME280;34422;45.802;16.114;2023-05-23T05:29:14;66002.53;;;20.73;100.00
48624;BME280;34422;45.802;16.114;2023-05-23T05:31:41;66005.22;;;20.81;100.00
48624;BME280;34422;45.802;16.114;2023-05-23T05:34:10;66017.72;;;20.87;100.00
48624;BME280;34422;45.802;16.114;2023-05-23T05:36:38;66103.00;;;21.72;98.49
48624;BME280;34422;45.802;16.114;2023-05-23T05:39:11;66049.72;;;21.27;99.36
48624;BME280;34422;45.802;16.114;2023-05-23T05:41:39;66114.38;;;21.83;96.57
48624;BME280;34422;45.802;16.114;2023-05-23T05:44:07;66142.69;;;22.04;96.01
48624;BME280;34422;45.802;16.114;2023-05-23T05:46:34;66181.75;;;22.51;91.68
48624;BME280;34422;45.802;16.114;2023-05-23T05:49:01;66059.53;;;21.32;100.00
48624;BME280;34422;45.802;16.114;2023-05-23T05:51:28;66156.78;;;22.22;91.38
48624;BME280;34422;45.802;16.114;2023-05-23T05:53:54;66265.53;;;23.24;85.34
48624;BME280;34422;45.802;16.114;2023-05-23T05:56:21;66316.66;;;23.77;78.92
48624;BME280;34422;45.802;16.114;2023-05-23T05:58:48;66358.03;;;24.10;75.57
48624;BME280;34422;45.802;16.114;2023-05-23T06:01:15;66289.47;;;23.46;79.65
48624;BME280;34422;45.802;16.114;2023-05-23T06:03:43;66144.84;;;22.11;92.06
48624;BME280;34422;45.802;16.114;2023-05-23T06:06:09;66155.69;;;22.24;93.04
48624;BME280;34422;45.802;16.114;2023-05-23T06:08:36;66194.31;;;22.52;96.48
48624;BME280;34422;45.802;16.114;2023-05-23T06:11:03;66289.44;;;23.54;82.84
48624;BME280;34422;45.802;16.114;2023-05-23T06:13:30;66397.75;;;24.50;70.34
48624;BME280;34422;45.802;16.114;2023-05-23T06:15:57;66352.59;;;24.05;72.62
48624;BME280;34422;45.802;16.114;2023-05-23T06:18:24;66291.66;;;23.48;77.92
48624;BME280;34422;45.802;16.114;2023-05-23T06:20:50;66308.00;;;23.63;78.55
48624;BME280;34422;45.802;16.114;2023-05-23T06:23:17;66214.41;;;22.79;79.98
48624;BME280;34422;45.802;16.114;2023-05-23T06:25:44;66191.00;;;22.57;84.83
48624;BME280;34422;45.802;16.114;2023-05-23T06:28:11;66389.06;;;24.41;68.60
48624;BME280;34422;45.802;16.114;2023-05-23T06:30:38;66341.16;;;23.94;72.74
48624;BME280;34422;45.802;16.114;2023-05-23T06:33:04;66385.25;;;24.35;70.08
48624;BME280;34422;45.802;16.114;2023-05-23T06:35:31;66325.94;;;23.80;76.26
48624;BME280;34422;45.802;16.114;2023-05-23T06:37:58;66270.97;;;23.29;82.40
48624;BME280;34422;45.802;16.114;2023-05-23T06:40:25;66263.38;;;23.22;85.97
48624;BME280;34422;45.802;16.114;2023-05-23T06:42:52;66480.56;;;25.27;70.83
48624;BME280;34422;45.802;16.114;2023-05-23T06:45:18;66368.91;;;24.20;76.33
48624;BME280;34422;45.802;16.114;2023-05-23T06:47:45;66472.91;;;25.20;72.91
48624;BME280;34422;45.802;16.114;2023-05-23T06:50:13;66609.75;;;26.44;62.67
48624;BME280;34422;45.802;16.114;2023-05-23T06:52:40;66623.88;;;26.63;62.25
48624;BME280;34422;45.802;16.114;2023-05-23T06:55:08;66623.91;;;26.58;62.40
48624;BME280;34422;45.802;16.114;2023-05-23T06:57:35;66671.94;;;27.02;57.73
48624;BME280;34422;45.802;16.114;2023-05-23T07:00:02;66686.63;;;27.18;53.44
48624;BME280;34422;45.802;16.114;2023-05-23T07:02:29;66490.38;;;25.33;67.77
48624;BME280;34422;45.802;16.114;2023-05-23T07:04:55;66503.44;;;25.48;66.46
48624;BME280;34422;45.802;16.114;2023-05-23T07:07:22;66519.78;;;25.63;69.77
48624;BME280;34422;45.802;16.114;2023-05-23T07:09:49;66643.53;;;26.78;59.44
48624;BME280;34422;45.802;16.114;2023-05-23T07:12:16;66665.94;;;26.94;59.04
48624;BME280;34422;45.802;16.114;2023-05-23T07:14:42;66753.75;;;27.78;56.87
48624;BME280;34422;45.802;16.114;2023-05-23T07:17:09;66754.25;;;27.84;56.29
48624;BME280;34422;45.802;16.114;2023-05-23T07:19:36;66667.56;;;26.98;59.89
48624;BME280;34422;45.802;16.114;2023-05-23T07:22:03;66488.75;;;25.32;70.69
48624;BME280;34422;45.802;16.114;2023-05-23T07:24:30;66474.53;;;25.24;71.30
48624;BME280;34422;45.802;16.114;2023-05-23T07:26:57;66608.63;;;26.46;63.60
48624;BME280;34422;45.802;16.114;2023-05-23T07:29:24;66616.28;;;26.50;65.81
48624;BME280;34422;45.802;16.114;2023-05-23T07:31:51;66646.81;;;26.79;64.12
48624;BME280;34422;45.802;16.114;2023-05-23T07:34:19;66611.88;;;26.51;62.66
48624;BME280;34422;45.802;16.114;2023-05-23T07:36:45;66625.53;;;26.62;66.10
48624;BME280;34422;45.802;16.114;2023-05-23T07:39:13;66702.47;;;27.31;58.81
48624;BME280;34422;45.802;16.114;2023-05-23T07:41:40;66770.66;;;27.97;58.14
48624;BME280;34422;45.802;16.114;2023-05-23T07:44:07;66766.31;;;27.90;58.97
48624;BME280;34422;45.802;16.114;2023-05-23T07:46:35;66683.88;;;27.18;61.21
48624;BME280;34422;45.802;16.114;2023-05-23T07:49:02;66725.88;;;27.57;58.38
48624;BME280;34422;45.802;16.114;2023-05-23T07:51:28;66697.53;;;27.29;61.90
48624;BME280;34422;45.802;16.114;2023-05-23T07:53:58;66674.13;;;27.04;62.02
48624;BME280;34422;45.802;16.114;2023-05-23T07:56:27;66704.06;;;27.35;63.80
48624;BME280;34422;45.802;16.114;2023-05-23T07:58:53;66701.91;;;27.33;60.26
48624;BME280;34422;45.802;16.114;2023-05-23T08:01:20;66837.22;;;28.61;57.72
48624;BME280;34422;45.802;16.114;2023-05-23T08:03:47;66748.31;;;27.73;58.38
48624;BME280;34422;45.802;16.114;2023-05-23T08:06:14;66793.06;;;28.15;56.11
48624;BME280;34422;45.802;16.114;2023-05-23T08:08:41;66810.00;;;28.30;53.79
48624;BME280;34422;45.802;16.114;2023-05-23T08:11:09;66853.06;;;28.76;53.99
48624;BME280;34422;45.802;16.114;2023-05-23T08:13:36;66918.66;;;29.31;51.58
48624;BME280;34422;45.802;16.114;2023-05-23T08:16:03;66775.59;;;27.99;56.23
48624;BME280;34422;45.802;16.114;2023-05-23T08:18:29;66917.56;;;29.30;51.29
48624;BME280;34422;45.802;16.114;2023-05-23T08:20:56;66986.38;;;29.99;49.43
48624;BME280;34422;45.802;16.114;2023-05-23T08:23:23;67020.81;;;30.31;48.98
48624;BME280;34422;45.802;16.114;2023-05-23T08:25:51;67039.94;;;30.49;47.13
48624;BME280;34422;45.802;16.114;2023-05-23T08:28:18;67009.38;;;30.18;48.86
48624;BME280;34422;45.802;16.114;2023-05-23T08:30:45;66970.06;;;29.79;48.82
48624;BME280;34422;45.802;16.114;2023-05-23T08:33:12;67026.34;;;30.31;48.68
48624;BME280;34422;45.802;16.114;2023-05-23T08:35:39;67038.94;;;30.43;47.43
48624;BME280;34422;45.802;16.114;2023-05-23T08:38:08;67065.13;;;30.72;45.72
48624;BME280;34422;45.802;16.114;2023-05-23T08:40:36;66811.56;;;28.37;49.97
48624;BME280;34422;45.802;16.114;2023-05-23T08:43:03;66873.84;;;28.95;47.88
48624;BME280;34422;45.802;16.114;2023-05-23T08:45:30;66938.94;;;29.48;47.42
48624;BME280;34422;45.802;16.114;2023-05-23T08:47:59;67048.19;;;30.54;46.20
48624;BME280;34422;45.802;16.114;2023-05-23T08:50:29;67121.47;;;31.22;42.17
48624;BME280;34422;45.802;16.114;2023-05-23T08:52:57;67101.78;;;31.04;43.05
48624;BME280;34422;45.802;16.114;2023-05-23T08:55:26;67180.53;;;31.79;40.83
48624;BME280;34422;45.802;16.114;2023-05-23T08:57:54;66984.25;;;29.92;44.61
48624;BME280;34422;45.802;16.114;2023-05-23T09:00:22;66994.09;;;30.01;44.50
48624;BME280;34422;45.802;16.114;2023-05-23T09:02:50;67167.97;;;31.68;43.70
48624;BME280;34422;45.802;16.114;2023-05-23T09:05:18;66934.00;;;29.46;43.83
48624;BME280;34422;45.802;16.114;2023-05-23T09:07:45;66897.91;;;29.12;48.82
48624;BME280;34422;45.802;16.114;2023-05-23T09:10:15;66961.81;;;29.74;45.26
48624;BME280;34422;45.802;16.114;2023-05-23T09:12:45;67012.63;;;30.24;45.93
48624;BME280;34422;45.802;16.114;2023-05-23T09:15:12;66943.75;;;29.60;47.54
48624;BME280;34422;45.802;16.114;2023-05-23T09:17:40;66986.91;;;30.02;45.61
48624;BME280;34422;45.802;16.114;2023-05-23T09:20:11;67053.16;;;30.56;43.83
48624;BME280;34422;45.802;16.114;2023-05-23T09:22:39;66959.06;;;29.74;44.83
48624;BME280;34422;45.802;16.114;2023-05-23T09:25:06;66901.69;;;29.21;45.24
48624;BME280;34422;45.802;16.114;2023-05-23T09:27:34;66911.03;;;29.24;45.87
48624;BME280;34422;45.802;16.114;2023-05-23T09:30:05;67000.66;;;30.08;44.21
48624;BME280;34422;45.802;16.114;2023-05-23T09:32:32;66971.69;;;29.81;46.95
48624;BME280;34422;45.802;16.114;2023-05-23T09:35:04;66962.41;;;29.72;43.05
48624;BME280;34422;45.802;16.114;2023-05-23T09:37:33;66883.72;;;28.99;44.54
48624;BME280;34422;45.802;16.114;2023-05-23T09:40:06;66836.75;;;28.55;47.79
48624;BME280;34422;45.802;16.114;2023-05-23T09:42:33;66806.69;;;28.30;48.16
48624;BME280;34422;45.802;16.114;2023-05-23T09:45:00;66811.56;;;28.37;47.58
48624;BME280;34422;45.802;16.114;2023-05-23T09:47:27;66903.88;;;29.23;45.30
48624;BME280;34422;45.802;16.114;2023-05-23T09:49:54;66930.13;;;29.45;44.81
48624;BME280;34422;45.802;16.114;2023-05-23T09:52:21;66875.53;;;28.91;45.19
48624;BME280;34422;45.802;16.114;2023-05-23T09:54:48;66893.47;;;29.13;44.66
48624;BME280;34422;45.802;16.114;2023-05-23T09:57:15;66915.97;;;29.26;43.99
48624;BME280;34422;45.802;16.114;2023-05-23T09:59:50;66849.22;;;28.72;42.04
48624;BME280;34422;45.802;16.114;2023-05-23T10:03:14;66879.41;;;28.90;42.46
48624;BME280;34422;45.802;16.114;2023-05-23T10:05:30;66923.56;;;29.39;44.89
48624;BME280;34422;45.802;16.114;2023-05-23T10:08:00;66940.56;;;29.52;44.39
48624;BME280;34422;45.802;16.114;2023-05-23T10:10:31;66881.03;;;28.94;43.88
48624;BME280;34422;45.802;16.114;2023-05-23T10:13:01;66931.25;;;29.43;45.89
48624;BME280;34422;45.802;16.114;2023-05-23T10:15:37;66932.84;;;29.50;43.84
48624;BME280;34422;45.802;16.114;2023-05-23T10:18:12;66915.38;;;29.28;43.60
48624;BME280;34422;45.802;16.114;2023-05-23T10:20:47;66897.91;;;29.12;45.23
48624;BME280;34422;45.802;16.114;2023-05-23T10:23:15;66977.19;;;29.83;40.71
48624;BME280;34422;45.802;16.114;2023-05-23T10:25:42;67000.75;;;30.02;41.86
48624;BME280;34422;45.802;16.114;2023-05-23T10:28:10;66963.97;;;29.79;44.37
48624;BME280;34422;45.802;16.114;2023-05-23T10:30:37;66974.88;;;29.91;41.50
48624;BME280;34422;45.802;16.114;2023-05-23T10:33:05;66944.28;;;29.63;41.57
48624;BME280;34422;45.802;16.114;2023-05-23T10:35:44;66976.03;;;29.87;39.84
48624;BME280;34422;45.802;16.114;2023-05-23T10:38:33;66925.25;;;29.38;42.08
48624;BME280;34422;45.802;16.114;2023-05-23T10:41:07;66961.25;;;29.76;39.92
48624;BME280;34422;45.802;16.114;2023-05-23T10:43:56;66922.50;;;29.35;42.58
48624;BME280;34422;45.802;16.114;2023-05-23T10:49:17;66934.94;;;29.57;41.51
48624;BME280;34422;45.802;16.114;2023-05-23T10:51:50;66935.09;;;29.47;39.92
48624;BME280;34422;45.802;16.114;2023-05-23T10:54:19;66911.53;;;29.27;39.99
48624;BME280;34422;45.802;16.114;2023-05-23T10:56:47;66966.19;;;29.78;39.62
48624;BME280;34422;45.802;16.114;2023-05-23T10:59:28;66960.16;;;29.75;39.12
48624;BME280;34422;45.802;16.114;2023-05-23T11:01:55;66954.72;;;29.67;39.93
48624;BME280;34422;45.802;16.114;2023-05-23T11:04:26;66956.88;;;29.72;38.70
48624;BME280;34422;45.802;16.114;2023-05-23T11:06:54;66982.06;;;29.90;39.90
48624;BME280;34422;45.802;16.114;2023-05-23T11:09:22;66950.81;;;29.69;39.46
48624;BME280;34422;45.802;16.114;2023-05-23T11:14:30;66955.78;;;29.71;39.97
48624;BME280;34422;45.802;16.114;2023-05-23T11:17:14;66949.28;;;29.60;38.73
48624;BME280;34422;45.802;16.114;2023-05-23T11:19:57;66897.91;;;29.12;38.03
48624;BME280;34422;45.802;16.114;2023-05-23T11:22:27;66885.91;;;29.01;36.49
48624;BME280;34422;45.802;16.114;2023-05-23T11:24:57;66844.94;;;28.63;38.36
48624;BME280;34422;45.802;16.114;2023-05-23T11:27:34;66914.25;;;29.32;37.51
48624;BME280;34422;45.802;16.114;2023-05-23T11:32:35;66901.19;;;29.15;37.73
48624;BME280;34422;45.802;16.114;2023-05-23T11:35:03;66941.06;;;29.55;39.66
48624;BME280;34422;45.802;16.114;2023-05-23T11:37:31;66931.78;;;29.46;37.85
48624;BME280;34422;45.802;16.114;2023-05-23T11:39:59;66888.59;;;29.06;38.82
48624;BME280;34422;45.802;16.114;2023-05-23T11:42:45;66848.13;;;28.71;39.49
48624;BME280;34422;45.802;16.114;2023-05-23T11:45:12;66923.03;;;29.38;36.96
48624;BME280;34422;45.802;16.114;2023-05-23T11:47:40;66964.00;;;29.76;37.71
48624;BME280;34422;45.802;16.114;2023-05-23T11:50:07;66986.44;;;29.94;36.03
48624;BME280;34422;45.802;16.114;2023-05-23T11:52:34;66983.66;;;29.94;38.61
48624;BME280;34422;45.802;16.114;2023-05-23T11:55:01;66914.25;;;29.32;36.79
48624;BME280;34422;45.802;16.114;2023-05-23T11:57:29;66955.31;;;29.65;37.64
48624;BME280;34422;45.802;16.114;2023-05-23T11:59:55;66953.66;;;29.64;37.38
48624;BME280;34422;45.802;16.114;2023-05-23T12:02:26;66947.63;;;29.61;37.60
48624;BME280;34422;45.802;16.114;2023-05-23T12:04:53;66958.50;;;29.74;37.58
48624;BME280;34422;45.802;16.114;2023-05-23T12:07:20;66938.28;;;29.55;37.38
48624;BME280;34422;45.802;16.114;2023-05-23T12:09:47;66924.09;;;29.42;38.13
48624;BME280;34422;45.802;16.114;2023-05-23T12:12:14;66887.50;;;29.05;36.47
48624;BME280;34422;45.802;16.114;2023-05-23T12:14:41;66916.44;;;29.34;37.05
48624;BME280;34422;45.802;16.114;2023-05-23T12:17:11;66888.09;;;29.03;39.29
48624;BME280;34422;45.802;16.114;2023-05-23T12:19:38;66895.75;;;29.10;37.82
48624;BME280;34422;45.802;16.114;2023-05-23T12:22:05;66870.56;;;28.92;38.79
48624;BME280;34422;45.802;16.114;2023-05-23T12:24:33;66900.59;;;29.20;38.10
48624;BME280;34422;45.802;16.114;2023-05-23T12:27:01;66914.28;;;29.30;36.68
48624;BME280;34422;45.802;16.114;2023-05-23T12:29:30;66930.69;;;29.45;38.04
48624;BME280;34422;45.802;16.114;2023-05-23T12:31:58;66933.41;;;29.48;37.90
48624;BME280;34422;45.802;16.114;2023-05-23T12:34:25;66947.09;;;29.58;38.54
48624;BME280;34422;45.802;16.114;2023-05-23T12:36:56;66862.97;;;28.80;38.55
48624;BME280;34422;45.802;16.114;2023-05-23T12:39:25;66896.25;;;29.13;39.13
48624;BME280;34422;45.802;16.114;2023-05-23T12:42:06;66939.97;;;29.54;35.69
48624;BME280;34422;45.802;16.114;2023-05-23T12:44:33;66928.50;;;29.43;33.75
48624;BME280;34422;45.802;16.114;2023-05-23T12:47:00;66939.38;;;29.56;35.68
48624;BME280;34422;45.802;16.114;2023-05-23T12:49:26;66915.34;;;29.33;34.46
48624;BME280;34422;45.802;16.114;2023-05-23T12:51:53;66912.59;;;29.31;35.34
48624;BME280;34422;45.802;16.114;2023-05-23T12:54:20;66914.81;;;29.30;36.75
48624;BME280;34422;45.802;16.114;2023-05-23T12:56:47;66927.38;;;29.45;35.43
48624;BME280;34422;45.802;16.114;2023-05-23T12:59:14;66894.56;;;29.14;37.39
48624;BME280;34422;45.802;16.114;2023-05-23T13:01:40;66872.22;;;28.91;38.27
48624;BME280;34422;45.802;16.114;2023-05-23T13:04:07;66910.97;;;29.27;38.71